sensor_id;sensor_type;location;lat;lon;timestamp;P1;durP1;ratioP1;P2;durP2;ratioP2
52186;SDS011;38161;53.020;6.598;2024-02-16T00:03:26;12.88;;;4.07;;
52186;SDS011;38161;53.020;6.598;2024-02-16T00:05:53;6.30;;;3.55;;
52186;SDS011;38161;53.020;6.598;2024-02-16T00:08:19;5.88;;;3.58;;
52186;SDS011;38161;53.020;6.598;2024-02-16T00:10:48;5.63;;;3.40;;
52186;SDS011;38161;53.020;6.598;2024-02-16T00:13:13;8.23;;;3.60;;
52186;SDS011;38161;53.020;6.598;2024-02-16T00:15:39;8.00;;;4.50;;
52186;SDS011;38161;53.020;6.598;2024-02-16T00:18:06;6.45;;;3.50;;
52186;SDS011;38161;53.020;6.598;2024-02-16T00:20:31;8.93;;;4.40;;
52186;SDS011;38161;53.020;6.598;2024-02-16T00:22:57;10.70;;;4.10;;
52186;SDS011;38161;53.020;6.598;2024-02-16T00:25:25;8.65;;;4.03;;
52186;SDS011;38161;53.020;6.598;2024-02-16T00:27:51;6.72;;;3.70;;
52186;SDS011;38161;53.020;6.598;2024-02-16T00:30:19;5.72;;;3.25;;
52186;SDS011;38161;53.020;6.598;2024-02-16T00:32:46;6.57;;;3.33;;
52186;SDS011;38161;53.020;6.598;2024-02-16T00:35:12;5.85;;;3.42;;
52186;SDS011;38161;53.020;6.598;2024-02-16T00:37:41;8.35;;;3.70;;
52186;SDS011;38161;53.020;6.598;2024-02-16T00:40:07;6.40;;;3.30;;
52186;SDS011;38161;53.020;6.598;2024-02-16T00:42:34;8.07;;;3.35;;
52186;SDS011;38161;53.020;6.598;2024-02-16T00:44:59;5.82;;;3.42;;
52186;SDS011;38161;53.020;6.598;2024-02-16T00:47:25;7.53;;;4.00;;
52186;SDS011;38161;53.020;6.598;2024-02-16T00:49:54;5.05;;;2.92;;
52186;SDS011;38161;53.020;6.598;2024-02-16T00:52:20;5.80;;;3.17;;
52186;SDS011;38161;53.020;6.598;2024-02-16T00:54:47;8.07;;;3.10;;
52186;SDS011;38161;53.020;6.598;2024-02-16T00:57:14;7.30;;;3.35;;
52186;SDS011;38161;53.020;6.598;2024-02-16T00:59:40;6.93;;;3.35;;
52186;SDS011;38161;53.020;6.598;2024-02-16T01:02:06;8.73;;;3.40;;
52186;SDS011;38161;53.020;6.598;2024-02-16T01:04:32;6.03;;;2.72;;
52186;SDS011;38161;53.020;6.598;2024-02-16T01:06:58;6.93;;;3.22;;
52186;SDS011;38161;53.020;6.598;2024-02-16T01:09:24;6.65;;;3.40;;
52186;SDS011;38161;53.020;6.598;2024-02-16T01:11:50;6.28;;;2.97;;
52186;SDS011;38161;53.020;6.598;2024-02-16T01:14:16;6.18;;;2.47;;
52186;SDS011;38161;53.020;6.598;2024-02-16T01:16:42;3.92;;;2.42;;
52186;SDS011;38161;53.020;6.598;2024-02-16T01:19:08;6.47;;;2.90;;
52186;SDS011;38161;53.020;6.598;2024-02-16T01:21:34;9.45;;;3.38;;
52186;SDS011;38161;53.020;6.598;2024-02-16T01:24:00;5.07;;;3.05;;
52186;SDS011;38161;53.020;6.598;2024-02-16T01:26:27;5.55;;;3.00;;
52186;SDS011;38161;53.020;6.598;2024-02-16T01:28:53;5.18;;;2.97;;
52186;SDS011;38161;53.020;6.598;2024-02-16T01:31:19;8.80;;;3.45;;
52186;SDS011;38161;53.020;6.598;2024-02-16T01:33:45;6.07;;;3.08;;
52186;SDS011;38161;53.020;6.598;2024-02-16T01:36:10;6.60;;;3.35;;
52186;SDS011;38161;53.020;6.598;2024-02-16T01:38:36;9.05;;;2.75;;
52186;SDS011;38161;53.020;6.598;2024-02-16T01:41:02;8.60;;;3.07;;
52186;SDS011;38161;53.020;6.598;2024-02-16T01:43:28;9.55;;;2.78;;
52186;SDS011;38161;53.020;6.598;2024-02-16T01:45:54;8.30;;;3.00;;
52186;SDS011;38161;53.020;6.598;2024-02-16T01:48:21;8.60;;;3.33;;
52186;SDS011;38161;53.020;6.598;2024-02-16T01:50:47;5.67;;;2.97;;
52186;SDS011;38161;53.020;6.598;2024-02-16T01:53:14;6.10;;;3.10;;
52186;SDS011;38161;53.020;6.598;2024-02-16T01:55:47;5.20;;;2.70;;
52186;SDS011;38161;53.020;6.598;2024-02-16T01:58:13;6.43;;;3.05;;
52186;SDS011;38161;53.020;6.598;2024-02-16T02:00:39;7.85;;;3.63;;
52186;SDS011;38161;53.020;6.598;2024-02-16T02:03:06;5.35;;;2.80;;
52186;SDS011;38161;53.020;6.598;2024-02-16T02:05:32;5.80;;;2.63;;
52186;SDS011;38161;53.020;6.598;2024-02-16T02:07:58;5.68;;;2.80;;
52186;SDS011;38161;53.020;6.598;2024-02-16T02:10:24;6.40;;;3.05;;
52186;SDS011;38161;53.020;6.598;2024-02-16T02:12:50;5.80;;;2.88;;
52186;SDS011;38161;53.020;6.598;2024-02-16T02:15:16;10.57;;;3.65;;
52186;SDS011;38161;53.020;6.598;2024-02-16T02:17:42;6.07;;;3.20;;
52186;SDS011;38161;53.020;6.598;2024-02-16T02:20:08;7.38;;;3.38;;
52186;SDS011;38161;53.020;6.598;2024-02-16T02:22:37;6.53;;;3.03;;
52186;SDS011;38161;53.020;6.598;2024-02-16T02:25:03;8.68;;;3.38;;
52186;SDS011;38161;53.020;6.598;2024-02-16T02:27:30;5.60;;;2.83;;
52186;SDS011;38161;53.020;6.598;2024-02-16T02:29:56;7.65;;;3.63;;
52186;SDS011;38161;53.020;6.598;2024-02-16T02:32:23;7.22;;;3.17;;
52186;SDS011;38161;53.020;6.598;2024-02-16T02:34:49;8.85;;;3.05;;
52186;SDS011;38161;53.020;6.598;2024-02-16T02:37:15;7.53;;;3.10;;
52186;SDS011;38161;53.020;6.598;2024-02-16T02:39:41;6.03;;;3.03;;
52186;SDS011;38161;53.020;6.598;2024-02-16T02:42:06;8.13;;;3.90;;
52186;SDS011;38161;53.020;6.598;2024-02-16T02:46:59;6.30;;;2.90;;
52186;SDS011;38161;53.020;6.598;2024-02-16T02:49:25;7.72;;;2.85;;
52186;SDS011;38161;53.020;6.598;2024-02-16T02:51:50;4.93;;;2.67;;
52186;SDS011;38161;53.020;6.598;2024-02-16T02:54:16;8.40;;;3.57;;
52186;SDS011;38161;53.020;6.598;2024-02-16T02:56:43;5.50;;;2.67;;
52186;SDS011;38161;53.020;6.598;2024-02-16T02:59:08;7.78;;;3.20;;
52186;SDS011;38161;53.020;6.598;2024-02-16T03:01:36;6.93;;;3.40;;
52186;SDS011;38161;53.020;6.598;2024-02-16T03:04:02;8.05;;;3.58;;
52186;SDS011;38161;53.020;6.598;2024-02-16T03:06:28;8.52;;;3.70;;
52186;SDS011;38161;53.020;6.598;2024-02-16T03:08:54;8.27;;;2.90;;
52186;SDS011;38161;53.020;6.598;2024-02-16T03:11:20;8.65;;;3.70;;
52186;SDS011;38161;53.020;6.598;2024-02-16T03:13:46;8.20;;;3.15;;
52186;SDS011;38161;53.020;6.598;2024-02-16T03:16:11;11.38;;;3.72;;
52186;SDS011;38161;53.020;6.598;2024-02-16T03:18:37;6.00;;;3.28;;
52186;SDS011;38161;53.020;6.598;2024-02-16T03:21:03;5.07;;;3.27;;
52186;SDS011;38161;53.020;6.598;2024-02-16T03:23:29;6.20;;;2.80;;
52186;SDS011;38161;53.020;6.598;2024-02-16T03:25:56;5.63;;;3.33;;
52186;SDS011;38161;53.020;6.598;2024-02-16T03:28:21;7.72;;;3.30;;
52186;SDS011;38161;53.020;6.598;2024-02-16T03:30:47;8.35;;;3.80;;
52186;SDS011;38161;53.020;6.598;2024-02-16T03:33:13;5.53;;;3.35;;
52186;SDS011;38161;53.020;6.598;2024-02-16T03:35:39;7.07;;;4.28;;
52186;SDS011;38161;53.020;6.598;2024-02-16T03:38:07;7.55;;;3.60;;
52186;SDS011;38161;53.020;6.598;2024-02-16T03:40:33;5.78;;;3.25;;
52186;SDS011;38161;53.020;6.598;2024-02-16T03:42:59;5.82;;;3.55;;
52186;SDS011;38161;53.020;6.598;2024-02-16T03:45:25;7.82;;;3.50;;
52186;SDS011;38161;53.020;6.598;2024-02-16T03:47:54;5.95;;;3.20;;
52186;SDS011;38161;53.020;6.598;2024-02-16T03:50:20;9.35;;;3.25;;
52186;SDS011;38161;53.020;6.598;2024-02-16T03:52:46;6.53;;;3.28;;
52186;SDS011;38161;53.020;6.598;2024-02-16T03:55:12;6.78;;;3.50;;
52186;SDS011;38161;53.020;6.598;2024-02-16T03:57:39;5.93;;;3.17;;
52186;SDS011;38161;53.020;6.598;2024-02-16T04:00:05;6.28;;;3.60;;
52186;SDS011;38161;53.020;6.598;2024-02-16T04:02:31;7.03;;;3.20;;
52186;SDS011;38161;53.020;6.598;2024-02-16T04:04:57;6.90;;;3.40;;
52186;SDS011;38161;53.020;6.598;2024-02-16T04:07:23;8.00;;;3.28;;
52186;SDS011;38161;53.020;6.598;2024-02-16T04:09:49;6.88;;;3.50;;
52186;SDS011;38161;53.020;6.598;2024-02-16T04:12:15;7.10;;;3.28;;
52186;SDS011;38161;53.020;6.598;2024-02-16T04:14:41;6.55;;;3.47;;
52186;SDS011;38161;53.020;6.598;2024-02-16T04:17:08;5.53;;;3.13;;
52186;SDS011;38161;53.020;6.598;2024-02-16T04:19:36;6.03;;;3.17;;
52186;SDS011;38161;53.020;6.598;2024-02-16T04:22:02;5.20;;;3.15;;
52186;SDS011;38161;53.020;6.598;2024-02-16T04:24:28;6.15;;;3.42;;
52186;SDS011;38161;53.020;6.598;2024-02-16T04:26:54;6.38;;;3.83;;
52186;SDS011;38161;53.020;6.598;2024-02-16T04:29:20;8.07;;;3.50;;
52186;SDS011;38161;53.020;6.598;2024-02-16T04:31:46;6.22;;;3.08;;
52186;SDS011;38161;53.020;6.598;2024-02-16T04:34:12;7.57;;;3.22;;
52186;SDS011;38161;53.020;6.598;2024-02-16T04:36:39;8.60;;;3.35;;
52186;SDS011;38161;53.020;6.598;2024-02-16T04:39:04;5.10;;;2.83;;
52186;SDS011;38161;53.020;6.598;2024-02-16T04:41:31;7.82;;;3.50;;
52186;SDS011;38161;53.020;6.598;2024-02-16T04:43:56;5.45;;;3.33;;
52186;SDS011;38161;53.020;6.598;2024-02-16T04:46:23;7.72;;;3.58;;
52186;SDS011;38161;53.020;6.598;2024-02-16T04:48:49;7.38;;;3.10;;
52186;SDS011;38161;53.020;6.598;2024-02-16T04:51:15;8.63;;;3.38;;
52186;SDS011;38161;53.020;6.598;2024-02-16T04:53:40;6.07;;;3.28;;
52186;SDS011;38161;53.020;6.598;2024-02-16T04:56:06;6.10;;;3.30;;
52186;SDS011;38161;53.020;6.598;2024-02-16T04:58:32;6.82;;;3.00;;
52186;SDS011;38161;53.020;6.598;2024-02-16T05:00:58;6.47;;;3.58;;
52186;SDS011;38161;53.020;6.598;2024-02-16T05:03:24;8.23;;;3.67;;
52186;SDS011;38161;53.020;6.598;2024-02-16T05:05:50;6.33;;;3.37;;
52186;SDS011;38161;53.020;6.598;2024-02-16T05:08:17;6.30;;;3.85;;
52186;SDS011;38161;53.020;6.598;2024-02-16T05:10:43;6.47;;;3.35;;
52186;SDS011;38161;53.020;6.598;2024-02-16T05:13:09;8.18;;;3.35;;
52186;SDS011;38161;53.020;6.598;2024-02-16T05:15:36;7.53;;;3.15;;
52186;SDS011;38161;53.020;6.598;2024-02-16T05:18:02;7.68;;;3.30;;
52186;SDS011;38161;53.020;6.598;2024-02-16T05:20:28;6.32;;;3.60;;
52186;SDS011;38161;53.020;6.598;2024-02-16T05:22:53;5.93;;;3.55;;
52186;SDS011;38161;53.020;6.598;2024-02-16T05:25:19;5.85;;;3.50;;
52186;SDS011;38161;53.020;6.598;2024-02-16T05:27:45;6.22;;;2.95;;
52186;SDS011;38161;53.020;6.598;2024-02-16T05:30:12;5.80;;;3.28;;
52186;SDS011;38161;53.020;6.598;2024-02-16T05:32:40;5.50;;;3.25;;
52186;SDS011;38161;53.020;6.598;2024-02-16T05:37:47;7.25;;;3.08;;
52186;SDS011;38161;53.020;6.598;2024-02-16T05:40:17;7.40;;;3.53;;
52186;SDS011;38161;53.020;6.598;2024-02-16T05:42:56;5.28;;;2.95;;
52186;SDS011;38161;53.020;6.598;2024-02-16T05:45:25;7.50;;;3.47;;
52186;SDS011;38161;53.020;6.598;2024-02-16T05:47:54;6.90;;;3.35;;
52186;SDS011;38161;53.020;6.598;2024-02-16T05:50:20;7.47;;;2.97;;
52186;SDS011;38161;53.020;6.598;2024-02-16T05:52:46;5.80;;;3.42;;
52186;SDS011;38161;53.020;6.598;2024-02-16T05:55:12;7.93;;;3.33;;
52186;SDS011;38161;53.020;6.598;2024-02-16T05:57:38;7.22;;;3.63;;
52186;SDS011;38161;53.020;6.598;2024-02-16T06:00:04;8.10;;;3.63;;
52186;SDS011;38161;53.020;6.598;2024-02-16T06:02:32;6.18;;;3.35;;
52186;SDS011;38161;53.020;6.598;2024-02-16T06:04:59;5.57;;;3.28;;
52186;SDS011;38161;53.020;6.598;2024-02-16T06:07:25;7.82;;;3.25;;
52186;SDS011;38161;53.020;6.598;2024-02-16T06:09:51;6.15;;;2.95;;
52186;SDS011;38161;53.020;6.598;2024-02-16T06:12:19;6.47;;;3.38;;
52186;SDS011;38161;53.020;6.598;2024-02-16T06:14:45;5.95;;;3.33;;
52186;SDS011;38161;53.020;6.598;2024-02-16T06:17:13;4.82;;;3.05;;
52186;SDS011;38161;53.020;6.598;2024-02-16T06:19:42;9.05;;;3.58;;
52186;SDS011;38161;53.020;6.598;2024-02-16T06:22:09;7.65;;;3.00;;
52186;SDS011;38161;53.020;6.598;2024-02-16T06:24:35;7.13;;;3.25;;
52186;SDS011;38161;53.020;6.598;2024-02-16T06:27:01;6.93;;;3.30;;
52186;SDS011;38161;53.020;6.598;2024-02-16T06:29:28;7.18;;;3.55;;
52186;SDS011;38161;53.020;6.598;2024-02-16T06:31:55;5.63;;;3.33;;
52186;SDS011;38161;53.020;6.598;2024-02-16T06:34:21;6.57;;;3.13;;
52186;SDS011;38161;53.020;6.598;2024-02-16T06:36:47;4.30;;;2.80;;
52186;SDS011;38161;53.020;6.598;2024-02-16T06:39:14;6.55;;;3.33;;
52186;SDS011;38161;53.020;6.598;2024-02-16T06:41:42;7.57;;;3.30;;
52186;SDS011;38161;53.020;6.598;2024-02-16T06:44:11;6.65;;;3.28;;
52186;SDS011;38161;53.020;6.598;2024-02-16T06:46:37;7.35;;;3.75;;
52186;SDS011;38161;53.020;6.598;2024-02-16T06:49:03;5.60;;;3.83;;
52186;SDS011;38161;53.020;6.598;2024-02-16T06:51:28;7.47;;;3.05;;
52186;SDS011;38161;53.020;6.598;2024-02-16T06:53:54;7.13;;;3.10;;
52186;SDS011;38161;53.020;6.598;2024-02-16T06:56:20;4.78;;;3.33;;
52186;SDS011;38161;53.020;6.598;2024-02-16T06:58:46;6.85;;;3.00;;
52186;SDS011;38161;53.020;6.598;2024-02-16T07:01:12;7.55;;;3.55;;
52186;SDS011;38161;53.020;6.598;2024-02-16T07:03:39;9.98;;;4.47;;
52186;SDS011;38161;53.020;6.598;2024-02-16T07:06:05;7.18;;;3.33;;
52186;SDS011;38161;53.020;6.598;2024-02-16T07:08:37;6.43;;;3.40;;
52186;SDS011;38161;53.020;6.598;2024-02-16T07:11:04;6.35;;;3.28;;
52186;SDS011;38161;53.020;6.598;2024-02-16T07:15:59;6.85;;;3.33;;
52186;SDS011;38161;53.020;6.598;2024-02-16T07:18:25;5.53;;;3.08;;
52186;SDS011;38161;53.020;6.598;2024-02-16T07:20:51;7.40;;;3.53;;
52186;SDS011;38161;53.020;6.598;2024-02-16T07:23:17;5.38;;;3.22;;
52186;SDS011;38161;53.020;6.598;2024-02-16T07:25:43;5.15;;;3.30;;
52186;SDS011;38161;53.020;6.598;2024-02-16T07:28:09;7.35;;;3.10;;
52186;SDS011;38161;53.020;6.598;2024-02-16T07:30:35;8.40;;;3.80;;
52186;SDS011;38161;53.020;6.598;2024-02-16T07:33:07;8.13;;;4.00;;
52186;SDS011;38161;53.020;6.598;2024-02-16T07:35:33;5.80;;;3.22;;
52186;SDS011;38161;53.020;6.598;2024-02-16T07:38:06;5.68;;;3.20;;
52186;SDS011;38161;53.020;6.598;2024-02-16T07:40:32;6.90;;;2.95;;
52186;SDS011;38161;53.020;6.598;2024-02-16T07:42:58;6.88;;;3.42;;
52186;SDS011;38161;53.020;6.598;2024-02-16T07:45:24;5.88;;;3.22;;
52186;SDS011;38161;53.020;6.598;2024-02-16T07:47:50;8.57;;;3.95;;
52186;SDS011;38161;53.020;6.598;2024-02-16T07:50:19;7.25;;;3.70;;
52186;SDS011;38161;53.020;6.598;2024-02-16T07:52:48;7.13;;;3.67;;
52186;SDS011;38161;53.020;6.598;2024-02-16T07:55:15;6.53;;;3.10;;
52186;SDS011;38161;53.020;6.598;2024-02-16T07:57:43;6.03;;;3.45;;
52186;SDS011;38161;53.020;6.598;2024-02-16T08:02:36;6.80;;;3.03;;
52186;SDS011;38161;53.020;6.598;2024-02-16T08:05:02;6.70;;;3.85;;
52186;SDS011;38161;53.020;6.598;2024-02-16T08:07:28;8.15;;;4.32;;
52186;SDS011;38161;53.020;6.598;2024-02-16T08:09:53;6.40;;;3.80;;
52186;SDS011;38161;53.020;6.598;2024-02-16T08:12:19;5.13;;;3.47;;
52186;SDS011;38161;53.020;6.598;2024-02-16T08:17:12;8.10;;;3.78;;
52186;SDS011;38161;53.020;6.598;2024-02-16T08:19:38;9.77;;;5.30;;
52186;SDS011;38161;53.020;6.598;2024-02-16T08:22:05;11.95;;;6.95;;
52186;SDS011;38161;53.020;6.598;2024-02-16T08:24:35;8.93;;;4.03;;
52186;SDS011;38161;53.020;6.598;2024-02-16T08:27:02;8.05;;;4.65;;
52186;SDS011;38161;53.020;6.598;2024-02-16T08:29:29;9.60;;;4.65;;
52186;SDS011;38161;53.020;6.598;2024-02-16T08:31:55;7.47;;;4.03;;
52186;SDS011;38161;53.020;6.598;2024-02-16T08:34:21;8.18;;;4.00;;
52186;SDS011;38161;53.020;6.598;2024-02-16T08:36:48;6.72;;;4.50;;
52186;SDS011;38161;53.020;6.598;2024-02-16T08:41:40;5.03;;;3.30;;
52186;SDS011;38161;53.020;6.598;2024-02-16T08:44:06;7.03;;;3.85;;
52186;SDS011;38161;53.020;6.598;2024-02-16T08:46:35;6.05;;;3.75;;
52186;SDS011;38161;53.020;6.598;2024-02-16T08:49:05;7.78;;;4.35;;
52186;SDS011;38161;53.020;6.598;2024-02-16T08:51:33;7.60;;;4.10;;
52186;SDS011;38161;53.020;6.598;2024-02-16T08:53:59;26.05;;;11.82;;
52186;SDS011;38161;53.020;6.598;2024-02-16T08:56:27;15.27;;;6.75;;
52186;SDS011;38161;53.020;6.598;2024-02-16T08:58:53;8.95;;;4.35;;
52186;SDS011;38161;53.020;6.598;2024-02-16T09:01:29;11.93;;;5.20;;
52186;SDS011;38161;53.020;6.598;2024-02-16T09:03:55;14.57;;;5.78;;
52186;SDS011;38161;53.020;6.598;2024-02-16T09:06:21;10.90;;;5.27;;
52186;SDS011;38161;53.020;6.598;2024-02-16T09:08:47;26.15;;;11.95;;
52186;SDS011;38161;53.020;6.598;2024-02-16T09:11:13;15.57;;;7.72;;
52186;SDS011;38161;53.020;6.598;2024-02-16T09:16:05;9.75;;;5.03;;
52186;SDS011;38161;53.020;6.598;2024-02-16T09:20:58;6.93;;;4.15;;
52186;SDS011;38161;53.020;6.598;2024-02-16T09:23:24;7.57;;;3.67;;
52186;SDS011;38161;53.020;6.598;2024-02-16T09:25:51;9.00;;;5.60;;
52186;SDS011;38161;53.020;6.598;2024-02-16T09:28:17;7.50;;;4.65;;
52186;SDS011;38161;53.020;6.598;2024-02-16T09:30:46;10.95;;;5.28;;
52186;SDS011;38161;53.020;6.598;2024-02-16T09:33:12;7.50;;;4.47;;
52186;SDS011;38161;53.020;6.598;2024-02-16T09:38:07;8.38;;;4.40;;
52186;SDS011;38161;53.020;6.598;2024-02-16T09:40:36;10.45;;;4.22;;
52186;SDS011;38161;53.020;6.598;2024-02-16T09:43:02;8.80;;;4.80;;
52186;SDS011;38161;53.020;6.598;2024-02-16T09:45:28;6.72;;;4.55;;
52186;SDS011;38161;53.020;6.598;2024-02-16T09:47:55;6.88;;;4.47;;
52186;SDS011;38161;53.020;6.598;2024-02-16T09:50:22;10.65;;;5.88;;
52186;SDS011;38161;53.020;6.598;2024-02-16T09:52:49;10.85;;;4.93;;
52186;SDS011;38161;53.020;6.598;2024-02-16T09:55:16;11.35;;;7.60;;
52186;SDS011;38161;53.020;6.598;2024-02-16T09:57:45;10.35;;;6.78;;
52186;SDS011;38161;53.020;6.598;2024-02-16T10:00:12;9.27;;;6.07;;
52186;SDS011;38161;53.020;6.598;2024-02-16T10:02:45;8.18;;;5.85;;
52186;SDS011;38161;53.020;6.598;2024-02-16T10:05:12;9.82;;;5.57;;
52186;SDS011;38161;53.020;6.598;2024-02-16T10:07:38;10.18;;;5.60;;
52186;SDS011;38161;53.020;6.598;2024-02-16T10:10:05;7.93;;;5.20;;
52186;SDS011;38161;53.020;6.598;2024-02-16T10:12:31;11.25;;;6.05;;
52186;SDS011;38161;53.020;6.598;2024-02-16T10:14:57;11.70;;;8.37;;
52186;SDS011;38161;53.020;6.598;2024-02-16T10:17:24;10.40;;;6.63;;
52186;SDS011;38161;53.020;6.598;2024-02-16T10:19:59;11.45;;;5.97;;
52186;SDS011;38161;53.020;6.598;2024-02-16T10:22:31;8.30;;;5.38;;
52186;SDS011;38161;53.020;6.598;2024-02-16T10:25:07;9.50;;;5.20;;
52186;SDS011;38161;53.020;6.598;2024-02-16T10:27:36;12.10;;;8.55;;
52186;SDS011;38161;53.020;6.598;2024-02-16T10:30:02;9.98;;;6.32;;
52186;SDS011;38161;53.020;6.598;2024-02-16T10:32:36;10.32;;;5.72;;
52186;SDS011;38161;53.020;6.598;2024-02-16T10:35:03;10.50;;;5.97;;
52186;SDS011;38161;53.020;6.598;2024-02-16T10:37:33;10.32;;;6.20;;
52186;SDS011;38161;53.020;6.598;2024-02-16T10:40:00;10.45;;;5.97;;
52186;SDS011;38161;53.020;6.598;2024-02-16T10:42:27;9.80;;;5.63;;
52186;SDS011;38161;53.020;6.598;2024-02-16T10:44:54;11.43;;;6.95;;
52186;SDS011;38161;53.020;6.598;2024-02-16T10:47:20;12.45;;;8.48;;
52186;SDS011;38161;53.020;6.598;2024-02-16T10:49:46;10.18;;;7.20;;
52186;SDS011;38161;53.020;6.598;2024-02-16T10:52:12;17.17;;;7.28;;
52186;SDS011;38161;53.020;6.598;2024-02-16T10:54:39;11.95;;;6.93;;
52186;SDS011;38161;53.020;6.598;2024-02-16T10:57:09;10.07;;;6.75;;
52186;SDS011;38161;53.020;6.598;2024-02-16T10:59:44;12.48;;;8.18;;
52186;SDS011;38161;53.020;6.598;2024-02-16T11:02:11;13.60;;;8.40;;
52186;SDS011;38161;53.020;6.598;2024-02-16T11:04:37;13.32;;;7.90;;
52186;SDS011;38161;53.020;6.598;2024-02-16T11:07:11;14.40;;;8.63;;
52186;SDS011;38161;53.020;6.598;2024-02-16T11:09:38;14.43;;;8.68;;
52186;SDS011;38161;53.020;6.598;2024-02-16T11:12:05;15.10;;;8.68;;
52186;SDS011;38161;53.020;6.598;2024-02-16T11:14:40;14.90;;;9.88;;
52186;SDS011;38161;53.020;6.598;2024-02-16T11:17:11;12.48;;;8.55;;
52186;SDS011;38161;53.020;6.598;2024-02-16T11:19:41;17.02;;;9.15;;
52186;SDS011;38161;53.020;6.598;2024-02-16T11:22:08;11.73;;;9.38;;
52186;SDS011;38161;53.020;6.598;2024-02-16T11:24:35;15.25;;;9.43;;
52186;SDS011;38161;53.020;6.598;2024-02-16T11:27:03;16.83;;;10.23;;
52186;SDS011;38161;53.020;6.598;2024-02-16T11:29:31;16.77;;;11.38;;
52186;SDS011;38161;53.020;6.598;2024-02-16T11:31:59;17.52;;;11.85;;
52186;SDS011;38161;53.020;6.598;2024-02-16T11:34:28;20.65;;;12.10;;
52186;SDS011;38161;53.020;6.598;2024-02-16T11:36:55;17.00;;;11.70;;
52186;SDS011;38161;53.020;6.598;2024-02-16T11:39:22;21.67;;;14.20;;
52186;SDS011;38161;53.020;6.598;2024-02-16T11:41:58;20.95;;;12.57;;
52186;SDS011;38161;53.020;6.598;2024-02-16T11:44:37;19.35;;;11.70;;
52186;SDS011;38161;53.020;6.598;2024-02-16T11:49:34;15.60;;;10.57;;
52186;SDS011;38161;53.020;6.598;2024-02-16T11:52:00;17.02;;;10.77;;
52186;SDS011;38161;53.020;6.598;2024-02-16T11:54:25;15.25;;;9.85;;
52186;SDS011;38161;53.020;6.598;2024-02-16T11:56:52;14.38;;;9.35;;
52186;SDS011;38161;53.020;6.598;2024-02-16T11:59:18;14.95;;;8.90;;
52186;SDS011;38161;53.020;6.598;2024-02-16T12:02:02;15.85;;;8.85;;
52186;SDS011;38161;53.020;6.598;2024-02-16T12:04:29;14.35;;;8.82;;
52186;SDS011;38161;53.020;6.598;2024-02-16T12:06:59;12.13;;;7.97;;
52186;SDS011;38161;53.020;6.598;2024-02-16T12:09:26;11.20;;;6.32;;
52186;SDS011;38161;53.020;6.598;2024-02-16T12:11:53;10.23;;;6.30;;
52186;SDS011;38161;53.020;6.598;2024-02-16T12:14:21;12.45;;;6.07;;
52186;SDS011;38161;53.020;6.598;2024-02-16T12:16:48;9.63;;;5.68;;
52186;SDS011;38161;53.020;6.598;2024-02-16T12:19:15;9.02;;;5.07;;
52186;SDS011;38161;53.020;6.598;2024-02-16T12:21:41;12.35;;;6.63;;
52186;SDS011;38161;53.020;6.598;2024-02-16T12:24:07;11.80;;;6.10;;
52186;SDS011;38161;53.020;6.598;2024-02-16T12:26:33;9.30;;;5.30;;
52186;SDS011;38161;53.020;6.598;2024-02-16T12:28:59;9.27;;;5.40;;
52186;SDS011;38161;53.020;6.598;2024-02-16T12:31:24;8.75;;;5.60;;
52186;SDS011;38161;53.020;6.598;2024-02-16T12:33:51;8.73;;;5.22;;
52186;SDS011;38161;53.020;6.598;2024-02-16T12:36:17;10.02;;;5.90;;
52186;SDS011;38161;53.020;6.598;2024-02-16T12:38:43;10.43;;;5.28;;
52186;SDS011;38161;53.020;6.598;2024-02-16T12:41:09;9.18;;;5.13;;
52186;SDS011;38161;53.020;6.598;2024-02-16T12:43:35;8.02;;;4.80;;
52186;SDS011;38161;53.020;6.598;2024-02-16T12:46:01;7.63;;;5.18;;
52186;SDS011;38161;53.020;6.598;2024-02-16T12:48:29;7.40;;;5.03;;
52186;SDS011;38161;53.020;6.598;2024-02-16T12:50:55;9.07;;;5.20;;
52186;SDS011;38161;53.020;6.598;2024-02-16T12:53:22;11.80;;;7.75;;
52186;SDS011;38161;53.020;6.598;2024-02-16T12:55:50;18.10;;;9.35;;
52186;SDS011;38161;53.020;6.598;2024-02-16T12:58:16;9.77;;;6.30;;
52186;SDS011;38161;53.020;6.598;2024-02-16T13:00:41;11.00;;;7.47;;
52186;SDS011;38161;53.020;6.598;2024-02-16T13:03:07;11.65;;;6.00;;
52186;SDS011;38161;53.020;6.598;2024-02-16T13:05:33;8.30;;;5.25;;
52186;SDS011;38161;53.020;6.598;2024-02-16T13:08:00;8.93;;;4.93;;
52186;SDS011;38161;53.020;6.598;2024-02-16T13:10:25;8.65;;;4.93;;
52186;SDS011;38161;53.020;6.598;2024-02-16T13:12:52;8.90;;;5.15;;
52186;SDS011;38161;53.020;6.598;2024-02-16T13:15:17;8.43;;;5.30;;
52186;SDS011;38161;53.020;6.598;2024-02-16T13:17:43;8.95;;;5.15;;
52186;SDS011;38161;53.020;6.598;2024-02-16T13:20:09;7.78;;;5.05;;
52186;SDS011;38161;53.020;6.598;2024-02-16T13:22:36;7.05;;;4.53;;
52186;SDS011;38161;53.020;6.598;2024-02-16T13:25:05;6.93;;;4.18;;
52186;SDS011;38161;53.020;6.598;2024-02-16T13:27:32;8.13;;;4.47;;
52186;SDS011;38161;53.020;6.598;2024-02-16T13:29:58;6.57;;;3.72;;
52186;SDS011;38161;53.020;6.598;2024-02-16T13:32:24;5.00;;;3.47;;
52186;SDS011;38161;53.020;6.598;2024-02-16T13:34:50;5.13;;;2.95;;
52186;SDS011;38161;53.020;6.598;2024-02-16T13:37:16;5.78;;;3.35;;
52186;SDS011;38161;53.020;6.598;2024-02-16T13:39:41;4.90;;;2.97;;
52186;SDS011;38161;53.020;6.598;2024-02-16T13:42:07;5.93;;;3.33;;
52186;SDS011;38161;53.020;6.598;2024-02-16T13:44:33;4.35;;;2.60;;
52186;SDS011;38161;53.020;6.598;2024-02-16T13:47:00;4.75;;;3.20;;
52186;SDS011;38161;53.020;6.598;2024-02-16T13:49:26;4.10;;;2.35;;
52186;SDS011;38161;53.020;6.598;2024-02-16T13:51:51;4.28;;;2.20;;
52186;SDS011;38161;53.020;6.598;2024-02-16T13:54:17;4.53;;;2.40;;
52186;SDS011;38161;53.020;6.598;2024-02-16T13:56:43;3.85;;;2.20;;
52186;SDS011;38161;53.020;6.598;2024-02-16T13:59:09;3.90;;;2.10;;
52186;SDS011;38161;53.020;6.598;2024-02-16T14:01:35;3.50;;;2.20;;
52186;SDS011;38161;53.020;6.598;2024-02-16T14:04:02;4.65;;;2.38;;
52186;SDS011;38161;53.020;6.598;2024-02-16T14:06:28;3.17;;;2.40;;
52186;SDS011;38161;53.020;6.598;2024-02-16T14:08:56;4.45;;;2.05;;
52186;SDS011;38161;53.020;6.598;2024-02-16T14:11:22;3.28;;;2.00;;
52186;SDS011;38161;53.020;6.598;2024-02-16T14:13:48;3.88;;;2.35;;
52186;SDS011;38161;53.020;6.598;2024-02-16T14:16:14;3.03;;;2.30;;
52186;SDS011;38161;53.020;6.598;2024-02-16T14:18:40;3.15;;;1.83;;
52186;SDS011;38161;53.020;6.598;2024-02-16T14:21:06;6.28;;;2.90;;
52186;SDS011;38161;53.020;6.598;2024-02-16T14:23:32;5.55;;;2.90;;
52186;SDS011;38161;53.020;6.598;2024-02-16T14:25:58;4.22;;;2.63;;
52186;SDS011;38161;53.020;6.598;2024-02-16T14:30:50;4.95;;;2.42;;
52186;SDS011;38161;53.020;6.598;2024-02-16T14:33:16;9.40;;;4.55;;
52186;SDS011;38161;53.020;6.598;2024-02-16T14:35:43;4.72;;;2.50;;
52186;SDS011;38161;53.020;6.598;2024-02-16T14:38:10;4.57;;;2.60;;
52186;SDS011;38161;53.020;6.598;2024-02-16T14:40:37;4.55;;;2.60;;
52186;SDS011;38161;53.020;6.598;2024-02-16T14:43:03;4.07;;;2.25;;
52186;SDS011;38161;53.020;6.598;2024-02-16T14:45:29;4.38;;;2.42;;
52186;SDS011;38161;53.020;6.598;2024-02-16T14:47:55;6.78;;;3.90;;
52186;SDS011;38161;53.020;6.598;2024-02-16T14:50:22;16.80;;;10.30;;
52186;SDS011;38161;53.020;6.598;2024-02-16T14:52:49;16.50;;;7.82;;
52186;SDS011;38161;53.020;6.598;2024-02-16T14:55:15;13.15;;;6.20;;
52186;SDS011;38161;53.020;6.598;2024-02-16T14:57:41;6.80;;;3.75;;
52186;SDS011;38161;53.020;6.598;2024-02-16T15:00:07;9.63;;;5.25;;
52186;SDS011;38161;53.020;6.598;2024-02-16T15:02:33;6.78;;;3.58;;
52186;SDS011;38161;53.020;6.598;2024-02-16T15:04:59;7.93;;;4.90;;
52186;SDS011;38161;53.020;6.598;2024-02-16T15:07:25;5.65;;;3.30;;
52186;SDS011;38161;53.020;6.598;2024-02-16T15:09:51;14.38;;;10.38;;
52186;SDS011;38161;53.020;6.598;2024-02-16T15:12:17;9.55;;;6.25;;